Terminal Aerodrome Forecast
Issued by NWS Northern Indiana

Home | Current Version | Previous Version | Graphics & Text | Print | Product List | Glossary On
Versions: 1 2 3 4 5 6 7 8 9 10 11 12 13 14 15 16 17
000
FTUS43 KIWX 290500 RRA
TAFFWA
TAF
KFWA 290544Z 2906/3006 15012G18KT P6SM BKN150 WS020/20045KT
     FM290900 17016G23KT 6SM -SHRA BR OVC070 WS020/21050KT
     FM291300 20014KT 4SM BR VCSH OVC040
     FM291600 26012KT 4SM -RASN BR OVC009
     FM292000 30015G23KT P6SM OVC012=

USA.gov is the U.S. government's official web portal to all federal, state and local government web resources and services.